createdAt,value
2022-08-07T00:00:19.221Z,17.32
2022-08-07T00:02:44.828Z,17.38
2022-08-07T00:03:09.328Z,17.38
2022-08-07T00:04:11.164Z,17.34
2022-08-07T00:05:10.446Z,17.39
2022-08-07T00:06:08.536Z,17.39
2022-08-07T00:07:16.476Z,17.41
2022-08-07T00:08:21.086Z,17.38
2022-08-07T00:09:36.236Z,17.46
2022-08-07T00:10:57.335Z,17.34
2022-08-07T00:11:56.270Z,17.37
2022-08-07T00:12:33.042Z,17.38
2022-08-07T00:13:33.826Z,17.37
2022-08-07T00:14:36.036Z,17.35
2022-08-07T00:15:51.678Z,17.32
2022-08-07T00:16:34.646Z,17.34
2022-08-07T00:17:41.786Z,17.17
2022-08-07T00:18:35.947Z,17.31
2022-08-07T00:20:16.081Z,17.19
2022-08-07T00:20:48.229Z,17.22
2022-08-07T00:22:12.495Z,17.2
2022-08-07T00:22:59.524Z,17.22
2022-08-07T00:23:57.833Z,17.12
2022-08-07T00:24:59.550Z,16.99
2022-08-07T00:26:18.730Z,17.02
2022-08-07T00:27:23.084Z,16.98
2022-08-07T00:28:22.335Z,16.94
2022-08-07T00:29:39.864Z,16.89
2022-08-07T00:30:41.146Z,16.83
2022-08-07T00:31:45.382Z,16.92
2022-08-07T00:32:41.414Z,16.84
2022-08-07T00:33:40.737Z,16.77
2022-08-07T00:34:41.813Z,16.82
2022-08-07T00:35:49.560Z,16.91
2022-08-07T00:36:44.684Z,16.84
2022-08-07T00:37:54.605Z,16.83
2022-08-07T00:38:45.133Z,16.87
2022-08-07T00:39:55.497Z,16.97
2022-08-07T00:40:46.792Z,16.95
2022-08-07T00:42:05.114Z,16.98
2022-08-07T00:42:50.459Z,16.89
2022-08-07T00:44:08.765Z,16.91
2022-08-07T00:44:48.359Z,16.91
2022-08-07T00:45:53.079Z,16.91
2022-08-07T00:46:49.456Z,16.94
2022-08-07T00:48:15.419Z,16.94
2022-08-07T00:48:52.178Z,16.8
2022-08-07T00:51:00.821Z,17.12
2022-08-07T00:52:04.595Z,17.01
2022-08-07T00:52:58.907Z,17.02
2022-08-07T00:54:01.794Z,16.95
2022-08-07T00:55:10.488Z,16.98
2022-08-07T00:56:20.234Z,16.98
2022-08-07T00:57:22.740Z,16.99
2022-08-07T00:58:22.114Z,17.01
2022-08-07T00:59:36.259Z,16.98
2022-08-07T01:00:25.964Z,16.97
2022-08-07T01:01:24.386Z,16.97
2022-08-07T01:02:35.692Z,16.98
2022-08-07T01:04:00.748Z,16.94
2022-08-07T01:04:34.695Z,16.97
2022-08-07T01:05:38.139Z,16.89
2022-08-07T01:06:32.870Z,16.95
2022-08-07T01:07:33.965Z,16.94
2022-08-07T01:08:33.712Z,16.91
2022-08-07T01:10:12.596Z,16.82
2022-08-07T01:10:34.947Z,16.95
2022-08-07T01:12:39.146Z,17.07
2022-08-07T01:13:56.263Z,17.07
2022-08-07T01:14:45.622Z,17.16
2022-08-07T01:16:10.539Z,17.16
2022-08-07T01:16:46.920Z,17.13
2022-08-07T01:17:45.696Z,17.05
2022-08-07T01:18:43.914Z,17.02
2022-08-07T01:19:55.061Z,17.09
2022-08-07T01:20:59.948Z,16.99
2022-08-07T01:21:47.081Z,16.97
2022-08-07T01:23:13.199Z,16.99
2022-08-07T01:23:52.726Z,17.02
2022-08-07T01:24:53.438Z,17.01
2022-08-07T01:26:02.028Z,17.01
2022-08-07T01:26:58.469Z,17.01
2022-08-07T01:28:00.059Z,17.05
2022-08-07T01:28:54.108Z,17.05
2022-08-07T01:29:53.035Z,17.13
2022-08-07T01:30:56.902Z,17.02
2022-08-07T01:31:54.700Z,17.09
2022-08-07T01:32:54.912Z,17.13
2022-08-07T01:34:04.480Z,17.02
2022-08-07T01:34:57.801Z,17.14
2022-08-07T01:36:07.505Z,17.04
2022-08-07T01:37:03.385Z,17.1
2022-08-07T01:37:58.708Z,17.07
2022-08-07T01:38:59.883Z,17.04
2022-08-07T01:40:01.089Z,17.01
2022-08-07T01:40:59.338Z,17.16
2022-08-07T01:42:57.734Z,17.17
2022-08-07T01:43:48.416Z,17.13
2022-08-07T01:44:53.616Z,17.2
2022-08-07T01:45:54.794Z,17.13
2022-08-07T01:46:50.752Z,17.16
2022-08-07T01:48:41.286Z,17.22
2022-08-07T01:49:32.349Z,17.2
2022-08-07T01:50:35.063Z,17.23
2022-08-07T01:52:10.321Z,17.24
2022-08-07T01:52:33.006Z,17.23
2022-08-07T01:54:36.750Z,17.2
2022-08-07T01:55:34.149Z,17.2
2022-08-07T01:56:39.197Z,17.2
2022-08-07T01:58:01.823Z,17.24
2022-08-07T01:58:47.624Z,17.22
2022-08-07T01:59:44.163Z,17.23
2022-08-07T02:00:49.945Z,17.13
2022-08-07T02:02:11.213Z,17.1
2022-08-07T02:03:57.060Z,17.07
2022-08-07T02:05:05.335Z,17.1
2022-08-07T02:06:32.482Z,17.12
2022-08-07T02:07:45.225Z,17.07
2022-08-07T02:08:25.036Z,17.16
2022-08-07T02:09:58.968Z,17.04
2022-08-07T02:10:25.647Z,17.13
2022-08-07T02:12:09.155Z,17.02
2022-08-07T02:12:37.635Z,17.07
2022-08-07T02:14:05.121Z,17.12
2022-08-07T02:14:49.845Z,17.01
2022-08-07T02:15:53.296Z,17.02
2022-08-07T02:16:50.266Z,17.05
2022-08-07T02:17:57.023Z,17.09
2022-08-07T02:18:53.060Z,17.13
2022-08-07T02:20:24.932Z,17.24
2022-08-07T02:21:16.880Z,17.22
2022-08-07T02:22:18.900Z,17.13
2022-08-07T02:23:13.022Z,17.2
2022-08-07T02:24:18.373Z,17.2
2022-08-07T02:25:18.689Z,17.22
2022-08-07T02:26:43.504Z,17.22
2022-08-07T02:27:53.369Z,17.2
2022-08-07T02:28:48.394Z,17.3
2022-08-07T02:30:07.267Z,17.27
2022-08-07T02:30:49.357Z,17.34
2022-08-07T02:31:55.265Z,17.27
2022-08-07T02:33:18.482Z,17.22
2022-08-07T02:34:16.235Z,17.31
2022-08-07T02:35:11.843Z,17.32
2022-08-07T02:36:45.943Z,17.3
2022-08-07T02:37:50.714Z,17.22
2022-08-07T02:38:56.665Z,17.27
2022-08-07T02:40:46.805Z,17.23
2022-08-07T02:41:54.709Z,17.22
2022-08-07T02:42:43.151Z,17.13
2022-08-07T02:43:49.375Z,17.12
2022-08-07T02:44:52.517Z,17.13
2022-08-07T02:46:07.610Z,17.12
2022-08-07T02:47:06.797Z,17.13
2022-08-07T02:48:15.979Z,17.1
2022-08-07T02:49:56.750Z,17.13
2022-08-07T02:50:18.960Z,17.07
2022-08-07T02:51:58.267Z,17.16
2022-08-07T02:53:06.252Z,17.22
2022-08-07T02:53:57.937Z,17.19
2022-08-07T02:54:58.621Z,17.3
2022-08-07T02:56:21.823Z,17.28
2022-08-07T02:56:58.506Z,17.31
2022-08-07T02:57:59.962Z,17.37
2022-08-07T02:59:00.197Z,17.32
2022-08-07T03:00:11.882Z,17.19
2022-08-07T03:01:03.693Z,17.27
2022-08-07T03:02:22.235Z,17.27
2022-08-07T03:03:23.454Z,17.28
2022-08-07T03:04:20.028Z,17.19
2022-08-07T03:05:37.048Z,17.16
2022-08-07T03:06:35.000Z,17.2
2022-08-07T03:08:09.562Z,17.07
2022-08-07T03:08:35.348Z,17.17
2022-08-07T03:09:53.296Z,17.13
2022-08-07T03:10:47.249Z,17.1
2022-08-07T03:11:58.076Z,17.1
2022-08-07T03:13:15.922Z,17.1
2022-08-07T03:14:15.561Z,17.1
2022-08-07T03:15:58.349Z,17.1
2022-08-07T03:16:27.753Z,17.07
2022-08-07T03:17:17.235Z,17.05
2022-08-07T03:18:34.380Z,17.09
2022-08-07T03:19:20.531Z,17.05
2022-08-07T03:20:18.735Z,17.05
2022-08-07T03:21:24.617Z,16.99
2022-08-07T03:22:31.080Z,16.99
2022-08-07T03:24:34.570Z,17.1
2022-08-07T03:25:40.264Z,17.1
2022-08-07T03:26:29.623Z,17.14
2022-08-07T03:28:37.083Z,17.22
2022-08-07T03:28:58.166Z,17.24
2022-08-07T03:29:59.942Z,17.27
2022-08-07T03:31:02.329Z,17.16
2022-08-07T03:32:01.470Z,17.17
2022-08-07T03:33:08.621Z,17.2
2022-08-07T03:34:02.048Z,17.23
2022-08-07T03:35:50.797Z,17.32
2022-08-07T03:36:32.706Z,17.35
2022-08-07T03:37:53.428Z,17.34
2022-08-07T03:38:35.353Z,17.3
2022-08-07T03:40:17.200Z,17.23
2022-08-07T03:40:45.103Z,17.34
2022-08-07T03:41:53.558Z,17.22
2022-08-07T03:42:43.917Z,17.17
2022-08-07T03:43:58.065Z,17.24
2022-08-07T03:44:57.894Z,17.19
2022-08-07T03:45:54.816Z,17.22
2022-08-07T03:47:19.777Z,17.14
2022-08-07T03:47:58.560Z,17.23
2022-08-07T03:49:09.610Z,17.24
2022-08-07T03:50:00.146Z,17.23
2022-08-07T03:51:03.517Z,17.22
2022-08-07T03:52:26.292Z,17.09
2022-08-07T03:53:03.959Z,17.1
2022-08-07T03:54:59.142Z,17.02
2022-08-07T03:56:03.899Z,17.04
2022-08-07T03:59:06.934Z,16.91
2022-08-07T03:59:28.253Z,16.86
2022-08-07T04:00:53.257Z,16.95
2022-08-07T04:01:29.213Z,16.87
2022-08-07T04:02:32.175Z,16.79
2022-08-07T04:03:53.910Z,16.77
2022-08-07T04:04:33.280Z,16.73
2022-08-07T04:05:46.729Z,16.8
2022-08-07T04:06:43.169Z,16.79
2022-08-07T04:07:45.765Z,16.73
2022-08-07T04:08:40.203Z,16.82
2022-08-07T04:09:50.973Z,16.65
2022-08-07T04:12:25.999Z,16.69
2022-08-07T04:12:47.735Z,16.69
2022-08-07T04:14:47.657Z,16.69
2022-08-07T04:15:06.903Z,16.65
2022-08-07T04:16:11.050Z,16.59
2022-08-07T04:17:21.842Z,16.66
2022-08-07T04:19:20.067Z,16.55
2022-08-07T04:20:08.408Z,16.61
2022-08-07T04:21:12.750Z,16.61
2022-08-07T04:22:18.431Z,16.58
2022-08-07T04:23:19.755Z,16.59
2022-08-07T04:24:38.957Z,16.58
2022-08-07T04:25:19.941Z,16.55
2022-08-07T04:26:22.330Z,16.61
2022-08-07T04:27:39.419Z,16.54
2022-08-07T04:28:22.267Z,16.54
2022-08-07T04:29:16.824Z,16.55
2022-08-07T04:30:59.142Z,16.47
2022-08-07T04:32:17.299Z,16.62
2022-08-07T04:33:23.690Z,16.51
2022-08-07T04:34:33.142Z,16.47
2022-08-07T04:35:21.958Z,16.46
2022-08-07T04:36:26.777Z,16.43
2022-08-07T04:37:29.287Z,16.41
2022-08-07T04:38:22.233Z,16.49
2022-08-07T04:39:26.619Z,16.47
2022-08-07T04:40:32.278Z,16.5
2022-08-07T04:41:28.334Z,16.43
2022-08-07T04:42:36.163Z,16.55
2022-08-07T04:44:24.887Z,16.5
2022-08-07T04:45:08.617Z,16.58
2022-08-07T04:46:20.281Z,16.46
2022-08-07T04:48:01.388Z,16.46
2022-08-07T04:48:31.285Z,16.4
2022-08-07T04:49:39.106Z,16.47
2022-08-07T04:50:30.574Z,16.49
2022-08-07T04:51:33.234Z,16.37
2022-08-07T04:52:33.568Z,16.43
2022-08-07T04:54:14.748Z,16.47
2022-08-07T05:00:08.127Z,16.37
2022-08-07T05:01:19.770Z,16.57
2022-08-07T05:02:25.819Z,16.61
2022-08-07T05:04:09.112Z,16.51
2022-08-07T05:04:50.180Z,16.57
2022-08-07T05:06:20.443Z,16.59
2022-08-07T05:06:59.700Z,16.61
2022-08-07T05:07:55.765Z,16.49
2022-08-07T05:09:08.787Z,16.55
2022-08-07T05:09:52.759Z,16.59
2022-08-07T05:11:02.518Z,16.51
2022-08-07T05:12:05.287Z,16.47
2022-08-07T05:15:10.336Z,16.65
2022-08-07T05:16:11.534Z,16.72
2022-08-07T05:17:54.696Z,16.66
2022-08-07T05:18:21.213Z,16.66
2022-08-07T05:19:33.063Z,16.59
2022-08-07T05:20:22.945Z,16.59
2022-08-07T05:22:08.207Z,16.55
2022-08-07T05:22:40.913Z,16.64
2022-08-07T05:23:42.068Z,16.58
2022-08-07T05:24:50.869Z,16.59
2022-08-07T05:26:24.617Z,16.51
2022-08-07T05:28:33.133Z,16.62
2022-08-07T05:29:51.382Z,16.59
2022-08-07T05:30:40.356Z,16.61
2022-08-07T05:31:40.458Z,16.61
2022-08-07T05:32:33.083Z,16.64
2022-08-07T05:33:36.963Z,16.64
2022-08-07T05:34:34.734Z,16.57
2022-08-07T05:35:48.063Z,16.59
2022-08-07T05:36:41.338Z,16.55
2022-08-07T05:37:43.667Z,16.58
2022-08-07T05:40:29.058Z,16.61
2022-08-07T05:42:07.447Z,16.61
2022-08-07T05:42:56.537Z,16.62
2022-08-07T05:44:13.921Z,16.61
2022-08-07T05:44:52.856Z,16.58
2022-08-07T05:46:02.509Z,16.61
2022-08-07T05:47:19.317Z,16.61
2022-08-07T05:48:13.946Z,16.62
2022-08-07T05:49:18.697Z,16.61
2022-08-07T05:50:15.479Z,16.51
2022-08-07T05:51:16.411Z,16.73
2022-08-07T05:52:29.991Z,16.69
2022-08-07T05:54:56.122Z,16.64
2022-08-07T05:55:23.394Z,16.57
2022-08-07T05:56:30.666Z,16.69
2022-08-07T05:57:29.980Z,16.65
2022-08-07T05:58:37.664Z,16.69
2022-08-07T05:59:22.981Z,16.68
2022-08-07T06:00:23.874Z,16.69
2022-08-07T06:01:26.143Z,16.68
2022-08-07T06:02:35.099Z,16.72
2022-08-07T06:03:58.746Z,16.62
2022-08-07T06:04:32.212Z,16.69
2022-08-07T06:05:34.305Z,16.68
2022-08-07T06:06:32.466Z,16.72
2022-08-07T06:08:31.476Z,16.61
2022-08-07T06:09:05.067Z,16.65
2022-08-07T06:10:16.005Z,16.66
2022-08-07T06:11:04.417Z,16.65
2022-08-07T06:12:00.034Z,16.68
2022-08-07T06:13:02.705Z,16.76
2022-08-07T06:14:30.241Z,16.76
2022-08-07T06:15:16.536Z,16.74
2022-08-07T06:16:04.415Z,16.77
2022-08-07T06:17:07.852Z,16.84
2022-08-07T06:18:04.211Z,16.77
2022-08-07T06:19:07.082Z,16.89
2022-08-07T06:20:32.269Z,16.77
2022-08-07T06:22:40.162Z,16.91
2022-08-07T06:25:04.091Z,16.79
2022-08-07T06:26:03.277Z,16.82
2022-08-07T06:27:04.423Z,16.89
2022-08-07T06:28:09.128Z,16.94
2022-08-07T06:29:08.052Z,16.92
2022-08-07T06:30:36.274Z,16.91
2022-08-07T06:31:09.777Z,16.89
2022-08-07T06:32:13.801Z,16.94
2022-08-07T06:33:17.019Z,16.92
2022-08-07T06:34:10.296Z,16.95
2022-08-07T06:35:39.234Z,16.86
2022-08-07T06:37:44.628Z,16.95
2022-08-07T06:38:30.778Z,16.98
2022-08-07T06:40:35.120Z,16.98
2022-08-07T06:40:59.414Z,16.97
2022-08-07T06:42:09.339Z,17.02
2022-08-07T06:43:02.820Z,16.99
2022-08-07T06:44:11.191Z,16.99
2022-08-07T06:45:02.524Z,16.94
2022-08-07T06:46:12.672Z,16.95
2022-08-07T06:47:18.518Z,16.89
2022-08-07T06:48:34.479Z,16.97
2022-08-07T06:49:58.389Z,16.92
2022-08-07T06:50:36.321Z,16.94
2022-08-07T06:51:50.403Z,16.95
2022-08-07T06:52:45.550Z,16.94
2022-08-07T06:56:01.671Z,16.99
2022-08-07T06:56:28.428Z,16.98
2022-08-07T06:57:56.495Z,16.92
2022-08-07T06:58:33.259Z,16.94
2022-08-07T07:00:27.671Z,16.97
2022-08-07T07:01:41.818Z,16.97
2022-08-07T07:03:00.696Z,17.01
2022-08-07T07:04:27.842Z,17.01
2022-08-07T07:05:02.857Z,17.09
2022-08-07T07:06:26.997Z,17.01
2022-08-07T07:08:10.161Z,17.01
2022-08-07T07:08:47.012Z,17.02
2022-08-07T07:09:46.030Z,17.04
2022-08-07T07:10:57.234Z,17.05
2022-08-07T07:12:48.609Z,17.02
2022-08-07T07:14:10.439Z,17.17
2022-08-07T07:15:32.357Z,17.16
2022-08-07T07:16:11.131Z,17.09
2022-08-07T07:17:16.667Z,17.22
2022-08-07T07:18:11.627Z,17.23
2022-08-07T07:20:03.378Z,17.17
2022-08-07T07:20:22.683Z,17.22
2022-08-07T07:22:05.559Z,17.27
2022-08-07T07:24:27.790Z,17.19
2022-08-07T07:26:52.611Z,17.46
2022-08-07T07:29:23.512Z,17.44
2022-08-07T07:30:51.066Z,17.49
2022-08-07T07:31:54.214Z,17.69
2022-08-07T07:32:53.740Z,17.6
2022-08-07T07:34:04.133Z,17.53
2022-08-07T07:34:54.845Z,17.56
2022-08-07T07:36:17.148Z,17.49
2022-08-07T07:37:22.232Z,17.42
2022-08-07T07:38:17.777Z,17.5
2022-08-07T07:39:19.304Z,17.56
2022-08-07T07:40:26.415Z,17.5
2022-08-07T07:41:20.203Z,17.52
2022-08-07T07:43:18.645Z,17.68
2022-08-07T07:44:31.808Z,17.56
2022-08-07T07:47:02.343Z,17.66
2022-08-07T07:47:53.202Z,17.76
2022-08-07T07:48:45.965Z,17.73
2022-08-07T07:50:45.930Z,17.63
2022-08-07T07:52:03.916Z,17.63
2022-08-07T07:52:40.411Z,17.54
2022-08-07T07:53:52.702Z,17.53
2022-08-07T07:54:52.021Z,17.52
2022-08-07T07:56:07.507Z,17.76
2022-08-07T07:57:03.629Z,17.65
2022-08-07T07:58:05.624Z,17.68
2022-08-07T07:59:02.576Z,17.73
2022-08-07T08:00:05.774Z,17.73
2022-08-07T08:02:10.450Z,17.75
2022-08-07T08:04:11.149Z,17.71
2022-08-07T08:04:33.929Z,17.71
2022-08-07T08:05:56.427Z,17.65
2022-08-07T08:06:36.454Z,17.65
2022-08-07T08:08:36.776Z,17.69
2022-08-07T08:09:09.705Z,17.76
2022-08-07T08:10:35.482Z,17.68
2022-08-07T08:11:47.586Z,17.72
2022-08-07T08:13:00.640Z,17.59
2022-08-07T08:13:23.252Z,17.66
2022-08-07T08:14:36.274Z,17.56
2022-08-07T08:16:00.694Z,17.53
2022-08-07T08:16:25.529Z,17.56
2022-08-07T08:18:18.969Z,17.49
2022-08-07T08:20:38.729Z,17.76
2022-08-07T08:22:13.500Z,17.94
2022-08-07T08:23:14.906Z,17.93
2022-08-07T08:24:46.566Z,17.76
2022-08-07T08:25:56.712Z,17.79
2022-08-07T08:26:58.264Z,17.82
2022-08-07T08:28:04.651Z,17.91
2022-08-07T08:28:52.741Z,17.79
2022-08-07T08:30:04.463Z,17.9
2022-08-07T08:30:57.261Z,17.82
2022-08-07T08:32:38.112Z,17.97
2022-08-07T08:33:50.235Z,17.87
2022-08-07T08:34:39.909Z,17.8
2022-08-07T08:35:52.561Z,17.75
2022-08-07T08:36:46.627Z,17.78
2022-08-07T08:38:09.631Z,17.76
2022-08-07T08:38:47.252Z,17.75
2022-08-07T08:39:59.915Z,17.72
2022-08-07T08:40:47.085Z,17.76
2022-08-07T08:42:04.635Z,17.68
2022-08-07T08:42:51.787Z,17.72
2022-08-07T08:44:07.130Z,17.79
2022-08-07T08:45:13.779Z,17.9
2022-08-07T08:46:07.892Z,17.8
2022-08-07T08:47:11.325Z,17.91
2022-08-07T08:48:11.340Z,17.88
2022-08-07T08:49:12.999Z,17.87
2022-08-07T08:50:28.123Z,17.9
2022-08-07T08:52:16.595Z,17.93
2022-08-07T08:52:54.871Z,17.9
2022-08-07T08:53:39.836Z,17.87
2022-08-07T08:54:41.694Z,17.91
2022-08-07T08:56:04.602Z,17.87
2022-08-07T08:56:48.017Z,17.93
2022-08-07T08:57:45.739Z,18.05
2022-08-07T08:58:43.004Z,18
2022-08-07T08:59:53.846Z,17.98
2022-08-07T09:00:52.701Z,18.06
2022-08-07T09:01:49.921Z,18.06
2022-08-07T09:02:52.230Z,18.06
2022-08-07T09:03:56.978Z,18
2022-08-07T09:04:51.115Z,18.03
2022-08-07T09:05:53.151Z,17.98
2022-08-07T09:06:53.760Z,18
2022-08-07T09:08:03.917Z,18.02
2022-08-07T09:08:54.649Z,18
2022-08-07T09:10:03.585Z,18.11
2022-08-07T09:10:55.102Z,18.16
2022-08-07T09:12:32.234Z,18.21
2022-08-07T09:13:02.365Z,18.21
2022-08-07T09:14:00.245Z,18.36
2022-08-07T09:16:29.681Z,18.31
2022-08-07T09:16:53.920Z,18.3
2022-08-07T09:18:14.384Z,18.36
2022-08-07T09:19:54.969Z,18.53
2022-08-07T09:21:00.894Z,18.55
2022-08-07T09:24:55.915Z,18.68
2022-08-07T09:25:20.244Z,18.57
2022-08-07T09:26:11.583Z,18.68
2022-08-07T09:27:17.727Z,18.63
2022-08-07T09:30:10.071Z,18.68
2022-08-07T09:30:34.933Z,18.67
2022-08-07T09:31:49.720Z,18.78
2022-08-07T09:32:39.529Z,18.66
2022-08-07T09:34:03.177Z,18.76
2022-08-07T09:34:38.189Z,18.7
2022-08-07T09:36:12.189Z,18.67
2022-08-07T09:36:46.760Z,18.76
2022-08-07T09:38:11.067Z,18.83
2022-08-07T09:39:53.426Z,18.78
2022-08-07T09:40:18.208Z,18.78
2022-08-07T09:41:15.872Z,18.74
2022-08-07T09:42:33.901Z,18.86
2022-08-07T09:44:05.382Z,18.76
2022-08-07T09:48:06.298Z,18.74
2022-08-07T09:48:20.750Z,18.92
2022-08-07T09:50:59.978Z,18.86
2022-08-07T09:52:41.018Z,18.88
2022-08-07T09:54:02.483Z,18.86
2022-08-07T09:54:43.278Z,18.88
2022-08-07T09:56:12.464Z,18.98
2022-08-07T09:56:47.713Z,18.88
2022-08-07T09:57:52.234Z,18.88
2022-08-07T09:58:50.956Z,18.94
2022-08-07T10:00:07.117Z,18.92
2022-08-07T10:00:51.897Z,18.91
2022-08-07T10:02:00.691Z,18.97
2022-08-07T10:04:04.326Z,18.86
2022-08-07T10:04:54.905Z,18.81
2022-08-07T10:06:17.297Z,18.78
2022-08-07T10:07:26.049Z,18.82
2022-08-07T10:08:09.215Z,18.79
2022-08-07T10:09:06.074Z,18.74
2022-08-07T10:10:21.548Z,18.73
2022-08-07T10:12:21.425Z,18.78
2022-08-07T10:12:53.948Z,18.81
2022-08-07T10:14:11.912Z,18.81
2022-08-07T10:15:19.022Z,18.76
2022-08-07T10:16:11.141Z,18.79
2022-08-07T10:17:23.629Z,18.76
2022-08-07T10:18:17.117Z,18.68
2022-08-07T10:19:17.430Z,18.73
2022-08-07T10:20:32.310Z,18.7
2022-08-07T10:22:17.100Z,18.79
2022-08-07T10:22:51.520Z,18.79
2022-08-07T10:24:21.491Z,18.74
2022-08-07T10:25:10.530Z,18.86
2022-08-07T10:26:11.562Z,18.89
2022-08-07T10:27:16.482Z,18.73
2022-08-07T10:28:13.152Z,18.88
2022-08-07T10:29:15.162Z,18.91
2022-08-07T10:30:19.205Z,18.88
2022-08-07T10:31:17.330Z,18.88
2022-08-07T10:33:00.448Z,18.81
2022-08-07T10:34:15.643Z,18.89
2022-08-07T10:34:45.772Z,18.91
2022-08-07T10:36:30.174Z,19.05
2022-08-07T10:38:42.386Z,18.89
2022-08-07T10:39:10.760Z,18.88
2022-08-07T10:40:13.049Z,18.92
2022-08-07T10:41:07.451Z,18.89
2022-08-07T10:42:36.712Z,18.88
2022-08-07T10:43:07.650Z,18.89
2022-08-07T10:44:14.779Z,18.91
2022-08-07T10:45:11.072Z,18.89
2022-08-07T10:46:09.668Z,18.83
2022-08-07T10:47:17.745Z,18.92
2022-08-07T10:48:15.601Z,18.89
2022-08-07T10:49:13.634Z,18.94
2022-08-07T10:50:15.649Z,18.89
2022-08-07T10:51:57.431Z,18.96
2022-08-07T10:52:42.907Z,19.04
2022-08-07T10:53:52.238Z,18.98
2022-08-07T10:55:02.116Z,18.98
2022-08-07T10:55:49.996Z,18.96
2022-08-07T10:56:53.288Z,18.98
2022-08-07T10:57:58.363Z,19.04
2022-08-07T10:59:00.461Z,19.11
2022-08-07T10:59:53.599Z,18.98
2022-08-07T11:01:12.303Z,19.01
2022-08-07T11:02:33.680Z,19.07
2022-08-07T11:02:59.916Z,19.01
2022-08-07T11:04:34.753Z,19.07
2022-08-07T11:04:59.352Z,19.19
2022-08-07T11:06:01.070Z,19.2
2022-08-07T11:07:02.438Z,19.26
2022-08-07T11:08:40.969Z,19.23
2022-08-07T11:10:16.852Z,19.26
2022-08-07T11:10:42.868Z,19.24
2022-08-07T11:11:43.052Z,19.22
2022-08-07T11:12:43.687Z,19.2
2022-08-07T11:15:02.141Z,19.32
2022-08-07T11:15:38.499Z,19.44
2022-08-07T11:16:38.492Z,19.38
2022-08-07T11:17:54.555Z,19.44
2022-08-07T11:18:41.611Z,19.38
2022-08-07T11:19:40.043Z,19.52
2022-08-07T11:20:43.226Z,19.53
2022-08-07T11:21:48.895Z,19.62
2022-08-07T11:22:52.879Z,19.64
2022-08-07T11:23:46.019Z,19.77
2022-08-07T11:24:52.456Z,19.89
2022-08-07T11:26:06.973Z,19.84
2022-08-07T11:26:56.303Z,19.74
2022-08-07T11:28:16.583Z,19.79
2022-08-07T11:28:55.926Z,19.75
2022-08-07T11:30:51.390Z,19.77
2022-08-07T11:31:52.377Z,19.67
2022-08-07T11:32:53.635Z,19.77
2022-08-07T11:34:05.251Z,19.79
2022-08-07T11:34:49.953Z,19.77
2022-08-07T11:36:10.608Z,19.78
2022-08-07T11:36:51.540Z,19.77
2022-08-07T11:38:18.242Z,19.78
2022-08-07T11:38:56.706Z,19.81
2022-08-07T11:40:09.022Z,19.87
2022-08-07T11:41:22.413Z,19.85
2022-08-07T11:42:30.456Z,19.85
2022-08-07T11:44:14.346Z,19.78
2022-08-07T11:44:57.747Z,19.79
2022-08-07T11:45:54.076Z,19.74
2022-08-07T11:46:43.974Z,19.75
2022-08-07T11:48:09.586Z,19.75
2022-08-07T11:49:51.696Z,19.77
2022-08-07T11:51:04.270Z,19.75
2022-08-07T11:52:04.359Z,19.78
2022-08-07T11:53:06.124Z,19.79
2022-08-07T11:54:11.012Z,19.81
2022-08-07T11:56:09.912Z,19.9
2022-08-07T11:56:53.277Z,20.03
2022-08-07T11:58:17.009Z,20
2022-08-07T11:58:50.252Z,20.07
2022-08-07T12:00:29.076Z,20.03
2022-08-07T12:01:22.472Z,20.03
2022-08-07T12:02:37.302Z,20.07
2022-08-07T12:03:52.764Z,20.17
2022-08-07T12:04:46.212Z,20.11
2022-08-07T12:05:59.438Z,20.07
2022-08-07T12:07:39.699Z,19.97
2022-08-07T12:08:32.006Z,19.93
2022-08-07T12:09:23.617Z,19.93
2022-08-07T12:10:13.025Z,19.93
2022-08-07T12:11:33.128Z,19.89
2022-08-07T12:12:24.835Z,19.81
2022-08-07T12:13:38.524Z,19.85
2022-08-07T12:14:25.013Z,19.77
2022-08-07T12:16:30.999Z,19.75
2022-08-07T12:17:22.099Z,19.82
2022-08-07T12:18:16.556Z,19.82
2022-08-07T12:19:22.052Z,19.77
2022-08-07T12:20:32.408Z,19.9
2022-08-07T12:22:36.787Z,19.85
2022-08-07T12:24:06.525Z,19.92
2022-08-07T12:26:23.644Z,19.96
2022-08-07T12:26:58.431Z,19.97
2022-08-07T12:28:30.915Z,20.02
2022-08-07T12:29:46.130Z,20.14
2022-08-07T12:30:53.111Z,20.22
2022-08-07T12:32:13.553Z,20.27
2022-08-07T12:32:49.576Z,20.3
2022-08-07T12:34:11.555Z,20.33
2022-08-07T12:34:56.593Z,20.39
2022-08-07T12:35:58.732Z,20.39
2022-08-07T12:36:55.699Z,20.39
2022-08-07T12:38:43.193Z,20.29
2022-08-07T12:39:57.798Z,20.27
2022-08-07T12:41:16.804Z,20.29
2022-08-07T12:42:28.660Z,20.42
2022-08-07T12:44:17.231Z,20.39
2022-08-07T12:44:36.765Z,20.44
2022-08-07T12:45:36.882Z,20.55
2022-08-07T12:46:40.697Z,20.7
2022-08-07T12:47:44.290Z,20.63
2022-08-07T12:49:26.024Z,20.66
2022-08-07T12:50:54.573Z,20.73
2022-08-07T12:52:19.699Z,20.58
2022-08-07T12:53:28.258Z,20.66
2022-08-07T12:55:17.962Z,20.71
2022-08-07T12:56:15.819Z,20.77
2022-08-07T12:57:20.297Z,20.68
2022-08-07T12:58:13.479Z,20.73
2022-08-07T12:59:21.290Z,20.71
2022-08-07T13:00:36.104Z,20.78
2022-08-07T13:01:14.779Z,20.88
2022-08-07T13:02:15.754Z,20.82
2022-08-07T13:03:56.571Z,20.74
2022-08-07T13:06:33.239Z,20.92
2022-08-07T13:08:26.586Z,20.96
2022-08-07T13:08:47.372Z,20.92
2022-08-07T13:10:52.685Z,20.9
2022-08-07T13:11:16.724Z,20.92
2022-08-07T13:12:16.402Z,21.04
2022-08-07T13:13:50.250Z,21
2022-08-07T13:14:14.216Z,21.03
2022-08-07T13:15:14.581Z,20.9
2022-08-07T13:16:16.267Z,20.92
2022-08-07T13:17:21.791Z,20.93
2022-08-07T13:18:36.529Z,21.01
2022-08-07T13:19:56.181Z,20.92
2022-08-07T13:20:37.049Z,20.9
2022-08-07T13:22:29.977Z,20.95
2022-08-07T13:22:58.601Z,20.92
2022-08-07T13:24:17.558Z,20.93
2022-08-07T13:25:30.929Z,21.01
2022-08-07T13:26:26.909Z,20.96
2022-08-07T13:27:21.385Z,20.96
2022-08-07T13:28:31.066Z,20.96
2022-08-07T13:29:26.203Z,20.89
2022-08-07T13:31:01.899Z,20.92
2022-08-07T13:31:55.376Z,20.93
2022-08-07T13:32:49.041Z,20.89
2022-08-07T13:34:36.317Z,20.86
2022-08-07T13:35:09.269Z,20.85
2022-08-07T13:36:06.104Z,20.86
2022-08-07T13:37:19.718Z,20.77
2022-08-07T13:38:07.539Z,20.82
2022-08-07T13:39:11.261Z,20.8
2022-08-07T13:41:18.629Z,20.9
2022-08-07T13:42:25.465Z,20.9
2022-08-07T13:43:22.651Z,21
2022-08-07T13:44:26.773Z,20.95
2022-08-07T13:46:33.150Z,21.04
2022-08-07T13:47:01.205Z,21.08
2022-08-07T13:48:35.132Z,20.93
2022-08-07T13:51:00.080Z,20.89
2022-08-07T13:52:43.088Z,20.93
2022-08-07T13:54:22.541Z,20.93
2022-08-07T13:55:25.738Z,20.98
2022-08-07T13:56:12.803Z,20.88
2022-08-07T13:57:22.627Z,20.98
2022-08-07T13:58:31.606Z,21
2022-08-07T13:59:18.257Z,21.04
2022-08-07T14:00:27.405Z,21.05
2022-08-07T14:01:21.988Z,21.05
2022-08-07T14:02:17.072Z,21.05
2022-08-07T14:04:05.025Z,21.01
2022-08-07T14:05:02.437Z,21.01
2022-08-07T14:06:02.381Z,21.08
2022-08-07T14:07:04.350Z,21.14
2022-08-07T14:08:08.506Z,21.04
2022-08-07T14:10:01.004Z,21.04
2022-08-07T14:11:15.081Z,21.01
2022-08-07T14:12:14.153Z,21.03
2022-08-07T14:13:01.649Z,21
2022-08-07T14:14:01.439Z,21
2022-08-07T14:15:02.526Z,21.04
2022-08-07T14:16:03.033Z,21.04
2022-08-07T14:18:13.420Z,20.92
2022-08-07T14:18:57.873Z,20.98
2022-08-07T14:20:55.477Z,20.93
2022-08-07T14:22:35.087Z,21
2022-08-07T14:23:09.415Z,21.04
2022-08-07T14:24:09.525Z,20.89
2022-08-07T14:25:11.079Z,20.86
2022-08-07T14:26:09.213Z,20.93
2022-08-07T14:28:31.193Z,20.9
2022-08-07T14:30:33.373Z,20.83
2022-08-07T14:31:24.259Z,20.85
2022-08-07T14:32:25.562Z,20.8
2022-08-07T14:33:45.737Z,20.74
2022-08-07T14:38:05.860Z,20.73
2022-08-07T14:40:35.691Z,20.93
2022-08-07T14:42:22.831Z,20.88
2022-08-07T14:47:21.375Z,20.96
2022-08-07T14:48:27.990Z,21.04
2022-08-07T14:50:01.542Z,21.04
2022-08-07T14:50:24.694Z,21
2022-08-07T14:52:10.148Z,20.9
2022-08-07T14:52:35.104Z,21.05
2022-08-07T14:54:35.953Z,20.92
2022-08-07T14:55:09.294Z,21.01
2022-08-07T15:02:39.157Z,20.93
2022-08-07T15:04:06.019Z,21
2022-08-07T15:05:02.367Z,21.04
2022-08-07T15:10:02.078Z,21.13
2022-08-07T15:13:43.659Z,21.15
2022-08-07T15:15:08.415Z,21.25
2022-08-07T15:18:55.474Z,21.17
2022-08-07T15:21:07.888Z,21.38
2022-08-07T15:25:43.216Z,21.38
2022-08-07T15:26:41.937Z,21.41
2022-08-07T15:28:41.498Z,21.41
2022-08-07T15:30:25.456Z,21.41